East Pitcairn, New York
Current Conditions -  °F | °C
As of 5:58 PM on Saturday 20 Dec 2014 (Local Time) from KGTB Reporting Station
Clear Clear  
Wind Chill: -7°   Ceiling: Unl
Heat Index: -7°   Visibility: 10mi
Dew Point: -11°   Wind: 2mph
Humidity: 72%   Direction: 10°N
Pressure: 30.26"   Gusts: NA
Location:  44.1447°N, 75.2952°W
Report Text: KGTB 202258Z AUTO 01002KT 10SM CLR M07/M11 A3026 RMK AO2 SLP261 T10681110
Loading
Personal Weather Stations






























Interactive Weather Map New forecast layout! Learn more

10-Day Weather Forecast

Advertisements
Track Severe Weather on mobile